sensor_id;sensor_type;location;lat;lon;timestamp;P1;durP1;ratioP1;P2;durP2;ratioP2
66095;SDS011;53861;53.422;14.530;2024-01-11T00:00:11;24.33;;;9.15;;
66095;SDS011;53861;53.422;14.530;2024-01-11T00:02:40;23.25;;;7.57;;
66095;SDS011;53861;53.422;14.530;2024-01-11T00:05:08;22.13;;;7.75;;
66095;SDS011;53861;53.422;14.530;2024-01-11T00:07:36;27.45;;;8.45;;
66095;SDS011;53861;53.422;14.530;2024-01-11T00:10:05;18.73;;;7.00;;
66095;SDS011;53861;53.422;14.530;2024-01-11T00:12:33;25.83;;;7.97;;
66095;SDS011;53861;53.422;14.530;2024-01-11T00:15:00;21.23;;;7.13;;
66095;SDS011;53861;53.422;14.530;2024-01-11T00:17:27;19.58;;;7.55;;
66095;SDS011;53861;53.422;14.530;2024-01-11T00:19:56;12.95;;;5.03;;
66095;SDS011;53861;53.422;14.530;2024-01-11T00:22:23;13.02;;;5.35;;
66095;SDS011;53861;53.422;14.530;2024-01-11T00:24:50;18.63;;;6.43;;
66095;SDS011;53861;53.422;14.530;2024-01-11T00:27:18;19.92;;;6.50;;
66095;SDS011;53861;53.422;14.530;2024-01-11T00:29:45;18.42;;;6.60;;
66095;SDS011;53861;53.422;14.530;2024-01-11T00:32:12;20.25;;;6.07;;
66095;SDS011;53861;53.422;14.530;2024-01-11T00:34:40;27.88;;;8.07;;
66095;SDS011;53861;53.422;14.530;2024-01-11T00:37:08;24.63;;;8.07;;
66095;SDS011;53861;53.422;14.530;2024-01-11T00:39:35;17.05;;;6.30;;
66095;SDS011;53861;53.422;14.530;2024-01-11T00:42:03;31.63;;;10.27;;
66095;SDS011;53861;53.422;14.530;2024-01-11T00:44:31;26.88;;;7.57;;
66095;SDS011;53861;53.422;14.530;2024-01-11T00:46:58;19.88;;;7.07;;
66095;SDS011;53861;53.422;14.530;2024-01-11T00:49:25;24.15;;;7.45;;
66095;SDS011;53861;53.422;14.530;2024-01-11T00:51:52;27.85;;;8.63;;
66095;SDS011;53861;53.422;14.530;2024-01-11T00:54:21;18.60;;;6.68;;
66095;SDS011;53861;53.422;14.530;2024-01-11T00:56:49;27.73;;;8.20;;
66095;SDS011;53861;53.422;14.530;2024-01-11T00:59:17;22.73;;;7.72;;
66095;SDS011;53861;53.422;14.530;2024-01-11T01:01:46;30.08;;;8.80;;
66095;SDS011;53861;53.422;14.530;2024-01-11T01:04:14;26.45;;;8.45;;
66095;SDS011;53861;53.422;14.530;2024-01-11T01:06:41;31.95;;;9.23;;
66095;SDS011;53861;53.422;14.530;2024-01-11T01:09:09;23.33;;;7.43;;
66095;SDS011;53861;53.422;14.530;2024-01-11T01:11:38;30.83;;;8.45;;
66095;SDS011;53861;53.422;14.530;2024-01-11T01:14:05;20.10;;;7.25;;
66095;SDS011;53861;53.422;14.530;2024-01-11T01:16:33;32.88;;;9.48;;
66095;SDS011;53861;53.422;14.530;2024-01-11T01:19:00;22.77;;;7.65;;
66095;SDS011;53861;53.422;14.530;2024-01-11T01:21:27;23.25;;;8.05;;
66095;SDS011;53861;53.422;14.530;2024-01-11T01:23:55;19.20;;;7.32;;
66095;SDS011;53861;53.422;14.530;2024-01-11T01:26:22;17.45;;;6.82;;
66095;SDS011;53861;53.422;14.530;2024-01-11T01:28:51;22.95;;;7.40;;
66095;SDS011;53861;53.422;14.530;2024-01-11T01:31:18;24.52;;;8.38;;
66095;SDS011;53861;53.422;14.530;2024-01-11T01:33:45;26.73;;;8.93;;
66095;SDS011;53861;53.422;14.530;2024-01-11T01:36:12;31.02;;;8.25;;
66095;SDS011;53861;53.422;14.530;2024-01-11T01:38:40;21.38;;;7.20;;
66095;SDS011;53861;53.422;14.530;2024-01-11T01:41:07;16.95;;;5.65;;
66095;SDS011;53861;53.422;14.530;2024-01-11T01:43:34;22.95;;;8.02;;
66095;SDS011;53861;53.422;14.530;2024-01-11T01:46:03;22.33;;;8.13;;
66095;SDS011;53861;53.422;14.530;2024-01-11T01:48:32;15.95;;;5.78;;
66095;SDS011;53861;53.422;14.530;2024-01-11T01:50:59;18.25;;;6.18;;
66095;SDS011;53861;53.422;14.530;2024-01-11T01:53:27;23.98;;;7.28;;
66095;SDS011;53861;53.422;14.530;2024-01-11T01:55:55;16.92;;;6.65;;
66095;SDS011;53861;53.422;14.530;2024-01-11T01:58:22;24.25;;;7.43;;
66095;SDS011;53861;53.422;14.530;2024-01-11T02:00:50;19.48;;;6.43;;
66095;SDS011;53861;53.422;14.530;2024-01-11T02:03:19;23.38;;;7.70;;
66095;SDS011;53861;53.422;14.530;2024-01-11T02:05:48;20.85;;;6.68;;
66095;SDS011;53861;53.422;14.530;2024-01-11T02:08:17;17.50;;;6.18;;
66095;SDS011;53861;53.422;14.530;2024-01-11T02:10:47;20.90;;;7.18;;
66095;SDS011;53861;53.422;14.530;2024-01-11T02:13:14;26.23;;;7.03;;
66095;SDS011;53861;53.422;14.530;2024-01-11T02:15:42;22.45;;;6.90;;
66095;SDS011;53861;53.422;14.530;2024-01-11T02:18:10;20.40;;;7.60;;
66095;SDS011;53861;53.422;14.530;2024-01-11T02:20:39;23.15;;;6.78;;
66095;SDS011;53861;53.422;14.530;2024-01-11T02:23:07;29.50;;;8.68;;
66095;SDS011;53861;53.422;14.530;2024-01-11T02:25:47;25.60;;;7.90;;
66095;SDS011;53861;53.422;14.530;2024-01-11T02:28:14;28.02;;;8.93;;
66095;SDS011;53861;53.422;14.530;2024-01-11T02:30:42;26.00;;;8.02;;
66095;SDS011;53861;53.422;14.530;2024-01-11T02:33:09;30.70;;;9.23;;
66095;SDS011;53861;53.422;14.530;2024-01-11T02:35:41;23.73;;;8.18;;
66095;SDS011;53861;53.422;14.530;2024-01-11T02:38:08;21.95;;;7.32;;
66095;SDS011;53861;53.422;14.530;2024-01-11T02:40:37;33.38;;;9.57;;
66095;SDS011;53861;53.422;14.530;2024-01-11T02:43:09;27.10;;;8.60;;
66095;SDS011;53861;53.422;14.530;2024-01-11T02:45:37;19.77;;;7.20;;
66095;SDS011;53861;53.422;14.530;2024-01-11T02:48:05;23.88;;;8.45;;
66095;SDS011;53861;53.422;14.530;2024-01-11T02:50:32;17.55;;;6.32;;
66095;SDS011;53861;53.422;14.530;2024-01-11T02:52:59;23.60;;;6.47;;
66095;SDS011;53861;53.422;14.530;2024-01-11T02:55:27;21.90;;;8.00;;
66095;SDS011;53861;53.422;14.530;2024-01-11T02:57:54;21.25;;;7.03;;
66095;SDS011;53861;53.422;14.530;2024-01-11T03:00:23;28.42;;;8.57;;
66095;SDS011;53861;53.422;14.530;2024-01-11T03:02:50;22.52;;;7.38;;
66095;SDS011;53861;53.422;14.530;2024-01-11T03:05:17;22.58;;;7.00;;
66095;SDS011;53861;53.422;14.530;2024-01-11T03:07:44;19.35;;;6.95;;
66095;SDS011;53861;53.422;14.530;2024-01-11T03:10:12;23.70;;;7.47;;
66095;SDS011;53861;53.422;14.530;2024-01-11T03:12:39;25.83;;;7.70;;
66095;SDS011;53861;53.422;14.530;2024-01-11T03:15:07;22.40;;;6.82;;
66095;SDS011;53861;53.422;14.530;2024-01-11T03:17:36;20.42;;;6.88;;
66095;SDS011;53861;53.422;14.530;2024-01-11T03:20:03;22.55;;;6.60;;
66095;SDS011;53861;53.422;14.530;2024-01-11T03:22:31;26.02;;;7.57;;
66095;SDS011;53861;53.422;14.530;2024-01-11T03:24:58;24.67;;;7.25;;
66095;SDS011;53861;53.422;14.530;2024-01-11T03:27:26;27.40;;;8.52;;
66095;SDS011;53861;53.422;14.530;2024-01-11T03:29:53;24.73;;;8.43;;
66095;SDS011;53861;53.422;14.530;2024-01-11T03:32:20;24.02;;;8.50;;
66095;SDS011;53861;53.422;14.530;2024-01-11T03:34:49;24.73;;;8.57;;
66095;SDS011;53861;53.422;14.530;2024-01-11T03:37:16;30.30;;;8.75;;
66095;SDS011;53861;53.422;14.530;2024-01-11T03:39:43;26.90;;;8.95;;
66095;SDS011;53861;53.422;14.530;2024-01-11T03:42:11;23.58;;;7.80;;
66095;SDS011;53861;53.422;14.530;2024-01-11T03:44:38;20.30;;;6.82;;
66095;SDS011;53861;53.422;14.530;2024-01-11T03:47:05;29.35;;;9.15;;
66095;SDS011;53861;53.422;14.530;2024-01-11T03:49:32;26.95;;;8.13;;
66095;SDS011;53861;53.422;14.530;2024-01-11T03:52:01;31.05;;;8.82;;
66095;SDS011;53861;53.422;14.530;2024-01-11T03:54:28;27.55;;;8.88;;
66095;SDS011;53861;53.422;14.530;2024-01-11T03:56:56;30.67;;;9.13;;
66095;SDS011;53861;53.422;14.530;2024-01-11T03:59:23;22.45;;;7.55;;
66095;SDS011;53861;53.422;14.530;2024-01-11T04:01:50;12.85;;;5.03;;
66095;SDS011;53861;53.422;14.530;2024-01-11T04:04:18;28.85;;;9.40;;
66095;SDS011;53861;53.422;14.530;2024-01-11T04:06:45;31.08;;;9.00;;
66095;SDS011;53861;53.422;14.530;2024-01-11T04:09:14;22.95;;;8.05;;
66095;SDS011;53861;53.422;14.530;2024-01-11T04:11:41;21.42;;;6.78;;
66095;SDS011;53861;53.422;14.530;2024-01-11T04:14:08;30.00;;;9.05;;
66095;SDS011;53861;53.422;14.530;2024-01-11T04:16:39;30.70;;;9.68;;
66095;SDS011;53861;53.422;14.530;2024-01-11T04:19:06;33.92;;;9.93;;
66095;SDS011;53861;53.422;14.530;2024-01-11T04:21:34;33.42;;;9.80;;
66095;SDS011;53861;53.422;14.530;2024-01-11T04:24:04;28.92;;;9.65;;
66095;SDS011;53861;53.422;14.530;2024-01-11T04:26:34;29.33;;;9.40;;
66095;SDS011;53861;53.422;14.530;2024-01-11T04:29:01;23.20;;;8.48;;
66095;SDS011;53861;53.422;14.530;2024-01-11T04:31:28;25.30;;;8.38;;
66095;SDS011;53861;53.422;14.530;2024-01-11T04:33:56;26.95;;;8.60;;
66095;SDS011;53861;53.422;14.530;2024-01-11T04:36:23;23.27;;;8.10;;
66095;SDS011;53861;53.422;14.530;2024-01-11T04:38:50;26.08;;;9.13;;
66095;SDS011;53861;53.422;14.530;2024-01-11T04:41:18;28.77;;;8.95;;
66095;SDS011;53861;53.422;14.530;2024-01-11T04:43:46;22.08;;;7.72;;
66095;SDS011;53861;53.422;14.530;2024-01-11T04:46:14;22.25;;;7.95;;
66095;SDS011;53861;53.422;14.530;2024-01-11T04:48:42;22.73;;;7.63;;
66095;SDS011;53861;53.422;14.530;2024-01-11T04:51:10;22.15;;;7.43;;
66095;SDS011;53861;53.422;14.530;2024-01-11T04:53:38;24.65;;;7.57;;
66095;SDS011;53861;53.422;14.530;2024-01-11T04:56:06;30.27;;;9.18;;
66095;SDS011;53861;53.422;14.530;2024-01-11T04:58:34;30.08;;;9.55;;
66095;SDS011;53861;53.422;14.530;2024-01-11T05:01:04;32.38;;;11.02;;
66095;SDS011;53861;53.422;14.530;2024-01-11T05:03:32;29.10;;;9.35;;
66095;SDS011;53861;53.422;14.530;2024-01-11T05:06:00;25.60;;;8.85;;
66095;SDS011;53861;53.422;14.530;2024-01-11T05:08:27;23.50;;;8.63;;
66095;SDS011;53861;53.422;14.530;2024-01-11T05:10:54;26.27;;;7.70;;
66095;SDS011;53861;53.422;14.530;2024-01-11T05:13:21;25.00;;;7.57;;
66095;SDS011;53861;53.422;14.530;2024-01-11T05:15:49;32.40;;;9.68;;
66095;SDS011;53861;53.422;14.530;2024-01-11T05:18:18;29.02;;;9.68;;
66095;SDS011;53861;53.422;14.530;2024-01-11T05:20:45;30.77;;;9.18;;
66095;SDS011;53861;53.422;14.530;2024-01-11T05:23:12;31.40;;;9.80;;
66095;SDS011;53861;53.422;14.530;2024-01-11T05:25:39;29.27;;;9.85;;
66095;SDS011;53861;53.422;14.530;2024-01-11T05:28:07;30.13;;;8.32;;
66095;SDS011;53861;53.422;14.530;2024-01-11T05:30:34;28.27;;;8.85;;
66095;SDS011;53861;53.422;14.530;2024-01-11T05:33:01;24.90;;;8.15;;
66095;SDS011;53861;53.422;14.530;2024-01-11T05:35:31;34.95;;;11.15;;
66095;SDS011;53861;53.422;14.530;2024-01-11T05:37:58;40.08;;;12.07;;
66095;SDS011;53861;53.422;14.530;2024-01-11T05:40:26;29.67;;;9.95;;
66095;SDS011;53861;53.422;14.530;2024-01-11T05:42:53;39.45;;;11.25;;
66095;SDS011;53861;53.422;14.530;2024-01-11T05:45:20;35.20;;;9.98;;
66095;SDS011;53861;53.422;14.530;2024-01-11T05:47:47;35.47;;;10.27;;
66095;SDS011;53861;53.422;14.530;2024-01-11T05:50:15;34.10;;;9.95;;
66095;SDS011;53861;53.422;14.530;2024-01-11T05:52:44;29.20;;;8.98;;
66095;SDS011;53861;53.422;14.530;2024-01-11T05:55:11;45.22;;;12.65;;
66095;SDS011;53861;53.422;14.530;2024-01-11T05:57:38;36.55;;;11.27;;
66095;SDS011;53861;53.422;14.530;2024-01-11T06:00:05;32.58;;;10.35;;
66095;SDS011;53861;53.422;14.530;2024-01-11T06:02:33;44.80;;;11.25;;
66095;SDS011;53861;53.422;14.530;2024-01-11T06:05:03;41.17;;;11.35;;
66095;SDS011;53861;53.422;14.530;2024-01-11T06:07:30;44.42;;;11.02;;
66095;SDS011;53861;53.422;14.530;2024-01-11T06:09:59;33.08;;;9.48;;
66095;SDS011;53861;53.422;14.530;2024-01-11T06:12:28;36.00;;;10.57;;
66095;SDS011;53861;53.422;14.530;2024-01-11T06:14:56;49.90;;;12.43;;
66095;SDS011;53861;53.422;14.530;2024-01-11T06:17:24;34.30;;;9.93;;
66095;SDS011;53861;53.422;14.530;2024-01-11T06:19:51;56.63;;;14.27;;
66095;SDS011;53861;53.422;14.530;2024-01-11T06:22:21;43.85;;;12.23;;
66095;SDS011;53861;53.422;14.530;2024-01-11T06:24:48;48.10;;;11.60;;
66095;SDS011;53861;53.422;14.530;2024-01-11T06:27:17;51.60;;;12.77;;
66095;SDS011;53861;53.422;14.530;2024-01-11T06:29:44;60.65;;;13.88;;
66095;SDS011;53861;53.422;14.530;2024-01-11T06:32:11;48.60;;;11.45;;
66095;SDS011;53861;53.422;14.530;2024-01-11T06:34:39;32.08;;;8.27;;
66095;SDS011;53861;53.422;14.530;2024-01-11T06:37:11;37.65;;;11.18;;
66095;SDS011;53861;53.422;14.530;2024-01-11T06:39:38;47.63;;;12.88;;
66095;SDS011;53861;53.422;14.530;2024-01-11T06:42:05;50.95;;;12.00;;
66095;SDS011;53861;53.422;14.530;2024-01-11T06:44:36;49.63;;;12.35;;
66095;SDS011;53861;53.422;14.530;2024-01-11T06:47:03;41.40;;;11.45;;
66095;SDS011;53861;53.422;14.530;2024-01-11T06:49:31;37.20;;;10.98;;
66095;SDS011;53861;53.422;14.530;2024-01-11T06:51:58;44.05;;;12.20;;
66095;SDS011;53861;53.422;14.530;2024-01-11T06:54:25;35.83;;;10.55;;
66095;SDS011;53861;53.422;14.530;2024-01-11T06:56:53;44.65;;;11.75;;
66095;SDS011;53861;53.422;14.530;2024-01-11T06:59:20;44.33;;;11.18;;
66095;SDS011;53861;53.422;14.530;2024-01-11T07:01:51;51.50;;;13.23;;
66095;SDS011;53861;53.422;14.530;2024-01-11T07:04:18;47.50;;;12.43;;
66095;SDS011;53861;53.422;14.530;2024-01-11T07:06:46;54.17;;;14.02;;
66095;SDS011;53861;53.422;14.530;2024-01-11T07:09:13;47.53;;;13.40;;
66095;SDS011;53861;53.422;14.530;2024-01-11T07:11:42;49.40;;;12.35;;
66095;SDS011;53861;53.422;14.530;2024-01-11T07:14:09;45.58;;;11.57;;
66095;SDS011;53861;53.422;14.530;2024-01-11T07:16:37;40.90;;;11.80;;
66095;SDS011;53861;53.422;14.530;2024-01-11T07:19:05;43.85;;;11.50;;
66095;SDS011;53861;53.422;14.530;2024-01-11T07:21:33;46.67;;;12.88;;
66095;SDS011;53861;53.422;14.530;2024-01-11T07:24:01;38.45;;;11.68;;
66095;SDS011;53861;53.422;14.530;2024-01-11T07:26:28;36.30;;;11.30;;
66095;SDS011;53861;53.422;14.530;2024-01-11T07:28:56;45.15;;;12.75;;
66095;SDS011;53861;53.422;14.530;2024-01-11T07:31:23;43.05;;;12.18;;
66095;SDS011;53861;53.422;14.530;2024-01-11T07:33:50;49.25;;;13.63;;
66095;SDS011;53861;53.422;14.530;2024-01-11T07:36:19;43.92;;;13.05;;
66095;SDS011;53861;53.422;14.530;2024-01-11T07:38:46;52.13;;;15.45;;
66095;SDS011;53861;53.422;14.530;2024-01-11T07:41:14;55.42;;;15.95;;
66095;SDS011;53861;53.422;14.530;2024-01-11T07:43:42;44.92;;;13.35;;
66095;SDS011;53861;53.422;14.530;2024-01-11T07:46:09;55.22;;;15.48;;
66095;SDS011;53861;53.422;14.530;2024-01-11T07:48:36;56.90;;;16.25;;
66095;SDS011;53861;53.422;14.530;2024-01-11T07:51:04;40.85;;;12.10;;
66095;SDS011;53861;53.422;14.530;2024-01-11T07:53:32;46.17;;;12.73;;
66095;SDS011;53861;53.422;14.530;2024-01-11T07:56:00;41.47;;;12.15;;
66095;SDS011;53861;53.422;14.530;2024-01-11T07:58:27;34.95;;;11.48;;
66095;SDS011;53861;53.422;14.530;2024-01-11T08:00:54;43.97;;;13.48;;
66095;SDS011;53861;53.422;14.530;2024-01-11T08:03:22;44.65;;;13.45;;
66095;SDS011;53861;53.422;14.530;2024-01-11T08:05:49;46.00;;;13.95;;
66095;SDS011;53861;53.422;14.530;2024-01-11T08:08:16;45.58;;;12.55;;
66095;SDS011;53861;53.422;14.530;2024-01-11T08:10:45;41.25;;;13.70;;
66095;SDS011;53861;53.422;14.530;2024-01-11T08:13:12;29.98;;;10.43;;
66095;SDS011;53861;53.422;14.530;2024-01-11T08:15:40;36.65;;;11.52;;
66095;SDS011;53861;53.422;14.530;2024-01-11T08:18:07;33.85;;;10.65;;
66095;SDS011;53861;53.422;14.530;2024-01-11T08:20:34;35.78;;;11.30;;
66095;SDS011;53861;53.422;14.530;2024-01-11T08:23:02;33.38;;;10.63;;
66095;SDS011;53861;53.422;14.530;2024-01-11T08:25:29;35.92;;;11.85;;
66095;SDS011;53861;53.422;14.530;2024-01-11T08:27:58;53.15;;;18.85;;
66095;SDS011;53861;53.422;14.530;2024-01-11T08:30:27;37.63;;;11.00;;
66095;SDS011;53861;53.422;14.530;2024-01-11T08:32:55;35.33;;;11.18;;
66095;SDS011;53861;53.422;14.530;2024-01-11T08:35:22;33.70;;;10.05;;
66095;SDS011;53861;53.422;14.530;2024-01-11T08:37:49;28.27;;;8.75;;
66095;SDS011;53861;53.422;14.530;2024-01-11T08:40:16;33.28;;;10.88;;
66095;SDS011;53861;53.422;14.530;2024-01-11T08:42:45;35.08;;;11.10;;
66095;SDS011;53861;53.422;14.530;2024-01-11T08:45:14;29.90;;;9.65;;
66095;SDS011;53861;53.422;14.530;2024-01-11T08:47:43;36.97;;;11.57;;
66095;SDS011;53861;53.422;14.530;2024-01-11T08:50:12;23.52;;;8.43;;
66095;SDS011;53861;53.422;14.530;2024-01-11T08:52:41;21.38;;;8.10;;
66095;SDS011;53861;53.422;14.530;2024-01-11T08:55:09;24.88;;;9.00;;
66095;SDS011;53861;53.422;14.530;2024-01-11T08:57:38;31.60;;;9.10;;
66095;SDS011;53861;53.422;14.530;2024-01-11T09:00:05;30.73;;;9.63;;
66095;SDS011;53861;53.422;14.530;2024-01-11T09:02:35;24.48;;;8.20;;
66095;SDS011;53861;53.422;14.530;2024-01-11T09:05:02;23.52;;;8.00;;
66095;SDS011;53861;53.422;14.530;2024-01-11T09:07:32;26.70;;;9.27;;
66095;SDS011;53861;53.422;14.530;2024-01-11T09:09:59;19.83;;;7.70;;
66095;SDS011;53861;53.422;14.530;2024-01-11T09:12:27;18.65;;;8.27;;
66095;SDS011;53861;53.422;14.530;2024-01-11T09:14:54;18.90;;;7.85;;
66095;SDS011;53861;53.422;14.530;2024-01-11T09:17:21;19.08;;;7.75;;
66095;SDS011;53861;53.422;14.530;2024-01-11T09:19:50;19.30;;;7.28;;
66095;SDS011;53861;53.422;14.530;2024-01-11T09:22:17;20.38;;;7.97;;
66095;SDS011;53861;53.422;14.530;2024-01-11T09:24:45;24.23;;;7.72;;
66095;SDS011;53861;53.422;14.530;2024-01-11T09:27:12;20.77;;;8.38;;
66095;SDS011;53861;53.422;14.530;2024-01-11T09:29:42;20.17;;;7.57;;
66095;SDS011;53861;53.422;14.530;2024-01-11T09:32:10;22.05;;;7.85;;
66095;SDS011;53861;53.422;14.530;2024-01-11T09:34:38;20.85;;;8.10;;
66095;SDS011;53861;53.422;14.530;2024-01-11T09:37:06;18.45;;;7.63;;
66095;SDS011;53861;53.422;14.530;2024-01-11T09:39:33;19.55;;;8.20;;
66095;SDS011;53861;53.422;14.530;2024-01-11T09:42:03;17.75;;;6.85;;
66095;SDS011;53861;53.422;14.530;2024-01-11T09:44:35;20.45;;;6.72;;
66095;SDS011;53861;53.422;14.530;2024-01-11T09:47:04;21.05;;;7.82;;
66095;SDS011;53861;53.422;14.530;2024-01-11T09:49:33;16.38;;;6.25;;
66095;SDS011;53861;53.422;14.530;2024-01-11T09:52:05;19.52;;;7.70;;
66095;SDS011;53861;53.422;14.530;2024-01-11T09:54:36;17.48;;;6.65;;
66095;SDS011;53861;53.422;14.530;2024-01-11T09:57:05;24.25;;;9.10;;
66095;SDS011;53861;53.422;14.530;2024-01-11T09:59:36;20.02;;;7.78;;
66095;SDS011;53861;53.422;14.530;2024-01-11T10:02:03;19.42;;;8.27;;
66095;SDS011;53861;53.422;14.530;2024-01-11T10:04:33;16.48;;;7.00;;
66095;SDS011;53861;53.422;14.530;2024-01-11T10:07:01;19.98;;;6.95;;
66095;SDS011;53861;53.422;14.530;2024-01-11T10:09:32;18.92;;;7.07;;
66095;SDS011;53861;53.422;14.530;2024-01-11T10:12:00;13.30;;;5.32;;
66095;SDS011;53861;53.422;14.530;2024-01-11T10:14:29;12.70;;;5.18;;
66095;SDS011;53861;53.422;14.530;2024-01-11T10:16:57;16.92;;;7.03;;
66095;SDS011;53861;53.422;14.530;2024-01-11T10:19:25;24.27;;;9.10;;
66095;SDS011;53861;53.422;14.530;2024-01-11T10:21:53;19.63;;;6.88;;
66095;SDS011;53861;53.422;14.530;2024-01-11T10:24:20;19.73;;;7.53;;
66095;SDS011;53861;53.422;14.530;2024-01-11T10:26:52;18.98;;;7.10;;
66095;SDS011;53861;53.422;14.530;2024-01-11T10:29:22;12.40;;;5.28;;
66095;SDS011;53861;53.422;14.530;2024-01-11T10:31:54;21.25;;;7.80;;
66095;SDS011;53861;53.422;14.530;2024-01-11T10:34:23;19.95;;;7.55;;
66095;SDS011;53861;53.422;14.530;2024-01-11T10:36:50;17.13;;;6.57;;
66095;SDS011;53861;53.422;14.530;2024-01-11T10:39:18;16.52;;;5.90;;
66095;SDS011;53861;53.422;14.530;2024-01-11T10:41:51;15.15;;;7.03;;
66095;SDS011;53861;53.422;14.530;2024-01-11T10:44:32;19.73;;;7.43;;
66095;SDS011;53861;53.422;14.530;2024-01-11T10:47:02;18.67;;;6.72;;
66095;SDS011;53861;53.422;14.530;2024-01-11T10:49:32;21.90;;;7.18;;
66095;SDS011;53861;53.422;14.530;2024-01-11T10:52:02;19.98;;;7.65;;
66095;SDS011;53861;53.422;14.530;2024-01-11T10:54:31;15.77;;;5.93;;
66095;SDS011;53861;53.422;14.530;2024-01-11T10:57:01;22.77;;;9.10;;
66095;SDS011;53861;53.422;14.530;2024-01-11T10:59:31;24.58;;;8.65;;
66095;SDS011;53861;53.422;14.530;2024-01-11T11:02:00;20.08;;;7.45;;
66095;SDS011;53861;53.422;14.530;2024-01-11T11:04:32;22.13;;;7.32;;
66095;SDS011;53861;53.422;14.530;2024-01-11T11:07:00;20.55;;;7.38;;
66095;SDS011;53861;53.422;14.530;2024-01-11T11:09:29;19.90;;;7.50;;
66095;SDS011;53861;53.422;14.530;2024-01-11T11:11:58;22.30;;;8.20;;
66095;SDS011;53861;53.422;14.530;2024-01-11T11:14:26;22.05;;;7.05;;
66095;SDS011;53861;53.422;14.530;2024-01-11T11:16:55;20.23;;;7.97;;
66095;SDS011;53861;53.422;14.530;2024-01-11T11:19:22;25.52;;;9.05;;
66095;SDS011;53861;53.422;14.530;2024-01-11T11:21:49;28.80;;;11.02;;
66095;SDS011;53861;53.422;14.530;2024-01-11T11:24:19;32.58;;;11.10;;
66095;SDS011;53861;53.422;14.530;2024-01-11T11:26:46;28.75;;;9.77;;
66095;SDS011;53861;53.422;14.530;2024-01-11T11:29:14;26.67;;;9.73;;
66095;SDS011;53861;53.422;14.530;2024-01-11T11:31:44;23.67;;;8.73;;
66095;SDS011;53861;53.422;14.530;2024-01-11T11:34:13;25.92;;;9.30;;
66095;SDS011;53861;53.422;14.530;2024-01-11T11:36:40;18.90;;;7.30;;
66095;SDS011;53861;53.422;14.530;2024-01-11T11:39:09;20.45;;;7.60;;
66095;SDS011;53861;53.422;14.530;2024-01-11T11:41:38;19.23;;;7.20;;
66095;SDS011;53861;53.422;14.530;2024-01-11T11:44:06;17.52;;;6.18;;
66095;SDS011;53861;53.422;14.530;2024-01-11T11:46:33;17.83;;;7.32;;
66095;SDS011;53861;53.422;14.530;2024-01-11T11:49:02;21.10;;;8.38;;
66095;SDS011;53861;53.422;14.530;2024-01-11T11:51:29;19.90;;;7.07;;
66095;SDS011;53861;53.422;14.530;2024-01-11T11:53:57;25.70;;;8.30;;
66095;SDS011;53861;53.422;14.530;2024-01-11T11:56:24;21.63;;;7.28;;
66095;SDS011;53861;53.422;14.530;2024-01-11T11:58:51;20.58;;;7.85;;
66095;SDS011;53861;53.422;14.530;2024-01-11T12:01:20;21.00;;;9.18;;
66095;SDS011;53861;53.422;14.530;2024-01-11T12:03:48;21.40;;;7.97;;
66095;SDS011;53861;53.422;14.530;2024-01-11T12:06:20;20.52;;;7.47;;
66095;SDS011;53861;53.422;14.530;2024-01-11T12:08:49;19.83;;;7.05;;
66095;SDS011;53861;53.422;14.530;2024-01-11T12:11:20;18.75;;;7.15;;
66095;SDS011;53861;53.422;14.530;2024-01-11T12:13:48;20.20;;;7.80;;
66095;SDS011;53861;53.422;14.530;2024-01-11T12:16:16;14.85;;;6.25;;
66095;SDS011;53861;53.422;14.530;2024-01-11T12:18:43;22.02;;;8.13;;
66095;SDS011;53861;53.422;14.530;2024-01-11T12:21:11;21.25;;;7.20;;
66095;SDS011;53861;53.422;14.530;2024-01-11T12:23:39;20.90;;;7.40;;
66095;SDS011;53861;53.422;14.530;2024-01-11T12:26:07;22.42;;;8.00;;
66095;SDS011;53861;53.422;14.530;2024-01-11T12:28:38;21.70;;;7.50;;
66095;SDS011;53861;53.422;14.530;2024-01-11T12:31:07;18.70;;;7.30;;
66095;SDS011;53861;53.422;14.530;2024-01-11T12:33:35;22.42;;;8.18;;
66095;SDS011;53861;53.422;14.530;2024-01-11T12:36:04;13.65;;;6.03;;
66095;SDS011;53861;53.422;14.530;2024-01-11T12:38:34;18.05;;;7.47;;
66095;SDS011;53861;53.422;14.530;2024-01-11T12:41:03;14.45;;;6.38;;
66095;SDS011;53861;53.422;14.530;2024-01-11T12:43:31;18.35;;;7.47;;
66095;SDS011;53861;53.422;14.530;2024-01-11T12:45:59;17.63;;;6.63;;
66095;SDS011;53861;53.422;14.530;2024-01-11T12:48:28;20.50;;;7.13;;
66095;SDS011;53861;53.422;14.530;2024-01-11T12:50:56;16.17;;;6.43;;
66095;SDS011;53861;53.422;14.530;2024-01-11T12:53:23;19.52;;;6.80;;
66095;SDS011;53861;53.422;14.530;2024-01-11T12:56:03;17.75;;;8.85;;
66095;SDS011;53861;53.422;14.530;2024-01-11T12:58:33;16.33;;;6.15;;
66095;SDS011;53861;53.422;14.530;2024-01-11T13:01:01;19.13;;;6.90;;
66095;SDS011;53861;53.422;14.530;2024-01-11T13:03:29;13.50;;;5.90;;
66095;SDS011;53861;53.422;14.530;2024-01-11T13:05:57;19.25;;;6.78;;
66095;SDS011;53861;53.422;14.530;2024-01-11T13:08:24;17.50;;;7.25;;
66095;SDS011;53861;53.422;14.530;2024-01-11T13:10:52;16.98;;;6.97;;
66095;SDS011;53861;53.422;14.530;2024-01-11T13:13:21;14.07;;;6.00;;
66095;SDS011;53861;53.422;14.530;2024-01-11T13:15:48;14.77;;;6.43;;
66095;SDS011;53861;53.422;14.530;2024-01-11T13:18:16;15.13;;;5.70;;
66095;SDS011;53861;53.422;14.530;2024-01-11T13:20:43;13.38;;;6.30;;
66095;SDS011;53861;53.422;14.530;2024-01-11T13:23:12;12.70;;;5.93;;
66095;SDS011;53861;53.422;14.530;2024-01-11T13:25:40;11.98;;;5.43;;
66095;SDS011;53861;53.422;14.530;2024-01-11T13:28:09;13.93;;;6.18;;
66095;SDS011;53861;53.422;14.530;2024-01-11T13:30:39;13.13;;;5.35;;
66095;SDS011;53861;53.422;14.530;2024-01-11T13:33:07;15.60;;;5.78;;
66095;SDS011;53861;53.422;14.530;2024-01-11T13:35:35;16.23;;;5.90;;
66095;SDS011;53861;53.422;14.530;2024-01-11T13:38:03;17.13;;;6.60;;
66095;SDS011;53861;53.422;14.530;2024-01-11T13:40:30;11.18;;;4.97;;
66095;SDS011;53861;53.422;14.530;2024-01-11T13:42:58;16.35;;;5.95;;
66095;SDS011;53861;53.422;14.530;2024-01-11T13:45:26;11.35;;;4.68;;
66095;SDS011;53861;53.422;14.530;2024-01-11T13:47:55;10.35;;;4.85;;
66095;SDS011;53861;53.422;14.530;2024-01-11T13:50:22;12.95;;;5.68;;
66095;SDS011;53861;53.422;14.530;2024-01-11T13:52:50;12.30;;;5.47;;
66095;SDS011;53861;53.422;14.530;2024-01-11T13:55:17;10.40;;;4.47;;
66095;SDS011;53861;53.422;14.530;2024-01-11T13:57:46;12.30;;;5.47;;
66095;SDS011;53861;53.422;14.530;2024-01-11T14:00:14;13.23;;;5.07;;
66095;SDS011;53861;53.422;14.530;2024-01-11T14:02:43;14.23;;;5.43;;
66095;SDS011;53861;53.422;14.530;2024-01-11T14:05:12;12.82;;;5.28;;
66095;SDS011;53861;53.422;14.530;2024-01-11T14:07:43;12.93;;;6.03;;
66095;SDS011;53861;53.422;14.530;2024-01-11T14:10:10;15.70;;;6.57;;
66095;SDS011;53861;53.422;14.530;2024-01-11T14:12:39;17.63;;;6.00;;
66095;SDS011;53861;53.422;14.530;2024-01-11T14:15:07;13.85;;;6.28;;
66095;SDS011;53861;53.422;14.530;2024-01-11T14:17:38;12.40;;;6.13;;
66095;SDS011;53861;53.422;14.530;2024-01-11T14:20:06;10.38;;;4.55;;
66095;SDS011;53861;53.422;14.530;2024-01-11T14:22:39;15.52;;;6.03;;